sensor_id;sensor_type;location;lat;lon;timestamp;P1;durP1;ratioP1;P2;durP2;ratioP2
66521;SDS011;53349;53.538;8.584;2023-05-14T00:00:53;9.93;;;5.10;;
66521;SDS011;53349;53.538;8.584;2023-05-14T00:03:20;7.70;;;4.88;;
66521;SDS011;53349;53.538;8.584;2023-05-14T00:05:46;7.75;;;5.32;;
66521;SDS011;53349;53.538;8.584;2023-05-14T00:08:12;6.67;;;5.13;;
66521;SDS011;53349;53.538;8.584;2023-05-14T00:10:37;10.50;;;4.88;;
66521;SDS011;53349;53.538;8.584;2023-05-14T00:13:05;8.93;;;5.53;;
66521;SDS011;53349;53.538;8.584;2023-05-14T00:15:33;7.45;;;5.30;;
66521;SDS011;53349;53.538;8.584;2023-05-14T00:17:59;7.67;;;5.07;;
66521;SDS011;53349;53.538;8.584;2023-05-14T00:20:24;7.70;;;4.80;;
66521;SDS011;53349;53.538;8.584;2023-05-14T00:22:49;7.65;;;4.90;;
66521;SDS011;53349;53.538;8.584;2023-05-14T00:25:15;8.20;;;4.67;;
66521;SDS011;53349;53.538;8.584;2023-05-14T00:27:43;9.30;;;5.32;;
66521;SDS011;53349;53.538;8.584;2023-05-14T00:30:08;8.45;;;5.47;;
66521;SDS011;53349;53.538;8.584;2023-05-14T00:32:34;8.03;;;5.00;;
66521;SDS011;53349;53.538;8.584;2023-05-14T00:34:59;7.67;;;5.30;;
66521;SDS011;53349;53.538;8.584;2023-05-14T00:37:25;6.80;;;4.90;;
66521;SDS011;53349;53.538;8.584;2023-05-14T00:39:51;7.18;;;5.28;;
66521;SDS011;53349;53.538;8.584;2023-05-14T00:42:17;8.17;;;5.27;;
66521;SDS011;53349;53.538;8.584;2023-05-14T00:44:43;8.88;;;4.90;;
66521;SDS011;53349;53.538;8.584;2023-05-14T00:47:09;7.53;;;4.75;;
66521;SDS011;53349;53.538;8.584;2023-05-14T00:49:35;9.20;;;5.30;;
66521;SDS011;53349;53.538;8.584;2023-05-14T00:52:00;7.33;;;5.40;;
66521;SDS011;53349;53.538;8.584;2023-05-14T00:54:31;8.55;;;5.15;;
66521;SDS011;53349;53.538;8.584;2023-05-14T00:56:58;8.55;;;5.07;;
66521;SDS011;53349;53.538;8.584;2023-05-14T00:59:27;9.48;;;5.13;;
66521;SDS011;53349;53.538;8.584;2023-05-14T01:01:56;8.13;;;5.45;;
66521;SDS011;53349;53.538;8.584;2023-05-14T01:04:21;8.77;;;5.38;;
66521;SDS011;53349;53.538;8.584;2023-05-14T01:09:58;8.25;;;5.65;;
66521;SDS011;53349;53.538;8.584;2023-05-14T01:15:18;7.15;;;5.22;;
66521;SDS011;53349;53.538;8.584;2023-05-14T01:17:53;8.85;;;5.15;;
66521;SDS011;53349;53.538;8.584;2023-05-14T01:20:21;10.13;;;5.63;;
66521;SDS011;53349;53.538;8.584;2023-05-14T01:22:47;8.93;;;5.60;;
66521;SDS011;53349;53.538;8.584;2023-05-14T01:25:12;9.10;;;5.32;;
66521;SDS011;53349;53.538;8.584;2023-05-14T01:27:47;6.97;;;5.30;;
66521;SDS011;53349;53.538;8.584;2023-05-14T01:30:33;8.83;;;4.93;;
66521;SDS011;53349;53.538;8.584;2023-05-14T01:33:09;8.23;;;5.68;;
66521;SDS011;53349;53.538;8.584;2023-05-14T01:35:37;9.25;;;6.00;;
66521;SDS011;53349;53.538;8.584;2023-05-14T01:38:05;10.50;;;5.70;;
66521;SDS011;53349;53.538;8.584;2023-05-14T01:40:33;8.82;;;5.35;;
66521;SDS011;53349;53.538;8.584;2023-05-14T01:43:02;10.83;;;5.43;;
66521;SDS011;53349;53.538;8.584;2023-05-14T01:45:29;7.85;;;5.60;;
66521;SDS011;53349;53.538;8.584;2023-05-14T01:47:58;9.00;;;5.85;;
66521;SDS011;53349;53.538;8.584;2023-05-14T01:50:23;9.02;;;5.45;;
66521;SDS011;53349;53.538;8.584;2023-05-14T01:52:49;11.30;;;5.97;;
66521;SDS011;53349;53.538;8.584;2023-05-14T01:55:14;8.68;;;5.53;;
66521;SDS011;53349;53.538;8.584;2023-05-14T01:57:40;9.25;;;6.30;;
66521;SDS011;53349;53.538;8.584;2023-05-14T02:00:06;9.27;;;6.00;;
66521;SDS011;53349;53.538;8.584;2023-05-14T02:02:31;8.98;;;5.97;;
66521;SDS011;53349;53.538;8.584;2023-05-14T02:04:59;11.18;;;6.60;;
66521;SDS011;53349;53.538;8.584;2023-05-14T02:07:24;9.23;;;6.20;;
66521;SDS011;53349;53.538;8.584;2023-05-14T02:09:50;10.60;;;6.20;;
66521;SDS011;53349;53.538;8.584;2023-05-14T02:12:15;10.82;;;6.07;;
66521;SDS011;53349;53.538;8.584;2023-05-14T02:14:46;8.50;;;5.85;;
66521;SDS011;53349;53.538;8.584;2023-05-14T02:17:11;9.60;;;6.18;;
66521;SDS011;53349;53.538;8.584;2023-05-14T02:19:37;9.75;;;5.97;;
66521;SDS011;53349;53.538;8.584;2023-05-14T02:22:02;9.10;;;5.77;;
66521;SDS011;53349;53.538;8.584;2023-05-14T02:24:31;10.63;;;5.90;;
66521;SDS011;53349;53.538;8.584;2023-05-14T02:26:57;9.38;;;5.72;;
66521;SDS011;53349;53.538;8.584;2023-05-14T02:29:23;9.95;;;6.18;;
66521;SDS011;53349;53.538;8.584;2023-05-14T02:31:48;10.03;;;6.20;;
66521;SDS011;53349;53.538;8.584;2023-05-14T02:34:21;10.23;;;6.15;;
66521;SDS011;53349;53.538;8.584;2023-05-14T02:36:47;9.52;;;6.18;;
66521;SDS011;53349;53.538;8.584;2023-05-14T02:39:16;10.30;;;6.05;;
66521;SDS011;53349;53.538;8.584;2023-05-14T02:41:44;9.52;;;6.60;;
66521;SDS011;53349;53.538;8.584;2023-05-14T02:44:11;11.90;;;6.23;;
66521;SDS011;53349;53.538;8.584;2023-05-14T02:46:39;10.55;;;6.18;;
66521;SDS011;53349;53.538;8.584;2023-05-14T02:49:04;9.07;;;6.50;;
66521;SDS011;53349;53.538;8.584;2023-05-14T02:51:33;9.40;;;6.03;;
66521;SDS011;53349;53.538;8.584;2023-05-14T02:53:58;12.10;;;6.10;;
66521;SDS011;53349;53.538;8.584;2023-05-14T02:56:24;10.18;;;6.72;;
66521;SDS011;53349;53.538;8.584;2023-05-14T02:58:49;11.43;;;6.57;;
66521;SDS011;53349;53.538;8.584;2023-05-14T03:01:15;10.60;;;6.32;;
66521;SDS011;53349;53.538;8.584;2023-05-14T03:03:42;12.80;;;6.80;;
66521;SDS011;53349;53.538;8.584;2023-05-14T03:06:07;11.80;;;7.20;;
66521;SDS011;53349;53.538;8.584;2023-05-14T03:08:36;9.90;;;7.03;;
66521;SDS011;53349;53.538;8.584;2023-05-14T03:11:07;11.15;;;7.05;;
66521;SDS011;53349;53.538;8.584;2023-05-14T03:13:35;12.90;;;6.72;;
66521;SDS011;53349;53.538;8.584;2023-05-14T03:16:00;10.13;;;6.93;;
66521;SDS011;53349;53.538;8.584;2023-05-14T03:18:29;10.95;;;7.30;;
66521;SDS011;53349;53.538;8.584;2023-05-14T03:20:57;10.23;;;6.85;;
66521;SDS011;53349;53.538;8.584;2023-05-14T03:23:24;11.70;;;7.55;;
66521;SDS011;53349;53.538;8.584;2023-05-14T03:25:49;9.88;;;7.38;;
66521;SDS011;53349;53.538;8.584;2023-05-14T03:28:14;10.20;;;7.20;;
66521;SDS011;53349;53.538;8.584;2023-05-14T03:30:40;12.93;;;7.37;;
66521;SDS011;53349;53.538;8.584;2023-05-14T03:33:05;13.20;;;7.80;;
66521;SDS011;53349;53.538;8.584;2023-05-14T03:35:32;10.37;;;7.83;;
66521;SDS011;53349;53.538;8.584;2023-05-14T03:38:01;15.35;;;8.05;;
66521;SDS011;53349;53.538;8.584;2023-05-14T03:40:26;10.65;;;7.68;;
66521;SDS011;53349;53.538;8.584;2023-05-14T03:42:55;13.25;;;7.60;;
66521;SDS011;53349;53.538;8.584;2023-05-14T03:45:20;10.07;;;7.37;;
66521;SDS011;53349;53.538;8.584;2023-05-14T03:47:45;12.60;;;7.37;;
66521;SDS011;53349;53.538;8.584;2023-05-14T03:50:11;10.63;;;6.93;;
66521;SDS011;53349;53.538;8.584;2023-05-14T03:52:36;9.60;;;6.63;;
66521;SDS011;53349;53.538;8.584;2023-05-14T03:55:03;11.30;;;7.63;;
66521;SDS011;53349;53.538;8.584;2023-05-14T03:57:28;10.20;;;7.63;;
66521;SDS011;53349;53.538;8.584;2023-05-14T03:59:55;11.03;;;7.13;;
66521;SDS011;53349;53.538;8.584;2023-05-14T04:02:20;11.90;;;7.78;;
66521;SDS011;53349;53.538;8.584;2023-05-14T04:04:48;13.50;;;7.70;;
66521;SDS011;53349;53.538;8.584;2023-05-14T04:07:14;13.23;;;7.55;;
66521;SDS011;53349;53.538;8.584;2023-05-14T04:09:40;11.15;;;8.07;;
66521;SDS011;53349;53.538;8.584;2023-05-14T04:12:06;13.97;;;8.10;;
66521;SDS011;53349;53.538;8.584;2023-05-14T04:14:32;11.57;;;8.23;;
66521;SDS011;53349;53.538;8.584;2023-05-14T04:16:57;11.60;;;7.33;;
66521;SDS011;53349;53.538;8.584;2023-05-14T04:19:22;12.63;;;7.80;;
66521;SDS011;53349;53.538;8.584;2023-05-14T04:21:48;12.50;;;7.55;;
66521;SDS011;53349;53.538;8.584;2023-05-14T04:24:16;11.70;;;7.40;;
66521;SDS011;53349;53.538;8.584;2023-05-14T04:26:41;11.00;;;7.83;;
66521;SDS011;53349;53.538;8.584;2023-05-14T04:29:07;11.18;;;8.15;;
66521;SDS011;53349;53.538;8.584;2023-05-14T04:31:32;11.75;;;7.90;;
66521;SDS011;53349;53.538;8.584;2023-05-14T04:33:57;11.23;;;7.97;;
66521;SDS011;53349;53.538;8.584;2023-05-14T04:36:23;11.37;;;7.17;;
66521;SDS011;53349;53.538;8.584;2023-05-14T04:38:49;10.93;;;7.60;;
66521;SDS011;53349;53.538;8.584;2023-05-14T04:41:16;13.52;;;7.80;;
66521;SDS011;53349;53.538;8.584;2023-05-14T04:43:41;11.60;;;7.40;;
66521;SDS011;53349;53.538;8.584;2023-05-14T04:46:11;13.43;;;7.60;;
66521;SDS011;53349;53.538;8.584;2023-05-14T04:48:38;10.97;;;7.27;;
66521;SDS011;53349;53.538;8.584;2023-05-14T04:51:04;10.30;;;6.80;;
66521;SDS011;53349;53.538;8.584;2023-05-14T04:53:30;11.20;;;7.15;;
66521;SDS011;53349;53.538;8.584;2023-05-14T04:55:55;11.10;;;7.13;;
66521;SDS011;53349;53.538;8.584;2023-05-14T04:58:20;12.33;;;7.10;;
66521;SDS011;53349;53.538;8.584;2023-05-14T05:00:46;9.90;;;7.10;;
66521;SDS011;53349;53.538;8.584;2023-05-14T05:03:11;11.03;;;7.53;;
66521;SDS011;53349;53.538;8.584;2023-05-14T05:05:38;10.52;;;7.45;;
66521;SDS011;53349;53.538;8.584;2023-05-14T05:08:03;10.77;;;7.27;;
66521;SDS011;53349;53.538;8.584;2023-05-14T05:10:31;10.23;;;7.00;;
66521;SDS011;53349;53.538;8.584;2023-05-14T05:12:56;10.90;;;7.07;;
66521;SDS011;53349;53.538;8.584;2023-05-14T05:15:24;10.38;;;7.05;;
66521;SDS011;53349;53.538;8.584;2023-05-14T05:17:49;11.07;;;7.33;;
66521;SDS011;53349;53.538;8.584;2023-05-14T05:20:14;10.03;;;7.30;;
66521;SDS011;53349;53.538;8.584;2023-05-14T05:22:40;9.23;;;6.83;;
66521;SDS011;53349;53.538;8.584;2023-05-14T05:25:05;10.93;;;7.13;;
66521;SDS011;53349;53.538;8.584;2023-05-14T05:27:31;9.40;;;6.67;;
66521;SDS011;53349;53.538;8.584;2023-05-14T05:29:56;10.60;;;6.38;;
66521;SDS011;53349;53.538;8.584;2023-05-14T05:32:23;9.48;;;6.80;;
66521;SDS011;53349;53.538;8.584;2023-05-14T05:34:49;10.23;;;7.13;;
66521;SDS011;53349;53.538;8.584;2023-05-14T05:37:15;11.80;;;6.70;;
66521;SDS011;53349;53.538;8.584;2023-05-14T05:39:41;9.15;;;6.80;;
66521;SDS011;53349;53.538;8.584;2023-05-14T05:42:08;10.47;;;6.83;;
66521;SDS011;53349;53.538;8.584;2023-05-14T05:44:33;11.90;;;8.15;;
66521;SDS011;53349;53.538;8.584;2023-05-14T05:46:59;13.53;;;8.33;;
66521;SDS011;53349;53.538;8.584;2023-05-14T05:49:24;9.37;;;7.00;;
66521;SDS011;53349;53.538;8.584;2023-05-14T05:51:49;10.97;;;6.60;;
66521;SDS011;53349;53.538;8.584;2023-05-14T05:54:15;9.20;;;6.70;;
66521;SDS011;53349;53.538;8.584;2023-05-14T05:56:43;10.40;;;6.40;;
66521;SDS011;53349;53.538;8.584;2023-05-14T05:59:09;9.32;;;6.55;;
66521;SDS011;53349;53.538;8.584;2023-05-14T06:01:34;9.50;;;6.60;;
66521;SDS011;53349;53.538;8.584;2023-05-14T06:04:01;9.50;;;6.77;;
66521;SDS011;53349;53.538;8.584;2023-05-14T06:06:27;9.25;;;6.60;;
66521;SDS011;53349;53.538;8.584;2023-05-14T06:08:52;10.90;;;6.25;;
66521;SDS011;53349;53.538;8.584;2023-05-14T06:11:19;8.98;;;6.85;;
66521;SDS011;53349;53.538;8.584;2023-05-14T06:13:44;9.57;;;6.57;;
66521;SDS011;53349;53.538;8.584;2023-05-14T06:16:12;8.75;;;6.43;;
66521;SDS011;53349;53.538;8.584;2023-05-14T06:18:38;10.17;;;6.37;;
66521;SDS011;53349;53.538;8.584;2023-05-14T06:21:04;12.40;;;6.50;;
66521;SDS011;53349;53.538;8.584;2023-05-14T06:23:36;10.93;;;7.00;;
66521;SDS011;53349;53.538;8.584;2023-05-14T06:26:01;11.13;;;6.53;;
66521;SDS011;53349;53.538;8.584;2023-05-14T06:28:34;13.57;;;7.13;;
66521;SDS011;53349;53.538;8.584;2023-05-14T06:31:00;9.40;;;6.38;;
66521;SDS011;53349;53.538;8.584;2023-05-14T06:33:27;8.53;;;6.37;;
66521;SDS011;53349;53.538;8.584;2023-05-14T06:35:53;8.48;;;6.05;;
66521;SDS011;53349;53.538;8.584;2023-05-14T06:38:19;8.60;;;6.10;;
66521;SDS011;53349;53.538;8.584;2023-05-14T06:40:44;11.00;;;6.17;;
66521;SDS011;53349;53.538;8.584;2023-05-14T06:43:10;8.87;;;5.97;;
66521;SDS011;53349;53.538;8.584;2023-05-14T06:45:37;9.43;;;6.20;;
66521;SDS011;53349;53.538;8.584;2023-05-14T06:48:03;10.32;;;6.30;;
66521;SDS011;53349;53.538;8.584;2023-05-14T06:50:29;9.57;;;6.27;;
66521;SDS011;53349;53.538;8.584;2023-05-14T06:52:55;11.40;;;6.47;;
66521;SDS011;53349;53.538;8.584;2023-05-14T06:55:21;9.00;;;6.13;;
66521;SDS011;53349;53.538;8.584;2023-05-14T06:57:51;11.43;;;5.93;;
66521;SDS011;53349;53.538;8.584;2023-05-14T07:00:19;7.87;;;6.13;;
66521;SDS011;53349;53.538;8.584;2023-05-14T07:02:47;8.95;;;6.10;;
66521;SDS011;53349;53.538;8.584;2023-05-14T07:05:16;9.52;;;6.25;;
66521;SDS011;53349;53.538;8.584;2023-05-14T07:07:43;11.48;;;7.00;;
66521;SDS011;53349;53.538;8.584;2023-05-14T07:10:09;10.17;;;6.73;;
66521;SDS011;53349;53.538;8.584;2023-05-14T07:12:38;8.20;;;5.82;;
66521;SDS011;53349;53.538;8.584;2023-05-14T07:15:03;10.13;;;6.30;;
66521;SDS011;53349;53.538;8.584;2023-05-14T07:17:34;8.70;;;5.93;;
66521;SDS011;53349;53.538;8.584;2023-05-14T07:19:59;10.17;;;6.20;;
66521;SDS011;53349;53.538;8.584;2023-05-14T07:22:28;9.53;;;5.60;;
66521;SDS011;53349;53.538;8.584;2023-05-14T07:24:53;8.43;;;5.70;;
66521;SDS011;53349;53.538;8.584;2023-05-14T07:27:22;10.52;;;5.88;;
66521;SDS011;53349;53.538;8.584;2023-05-14T07:29:48;9.02;;;6.00;;
66521;SDS011;53349;53.538;8.584;2023-05-14T07:32:14;7.80;;;6.07;;
66521;SDS011;53349;53.538;8.584;2023-05-14T07:34:39;8.43;;;5.20;;
66521;SDS011;53349;53.538;8.584;2023-05-14T07:37:07;6.80;;;5.20;;
66521;SDS011;53349;53.538;8.584;2023-05-14T07:39:33;7.85;;;5.05;;
66521;SDS011;53349;53.538;8.584;2023-05-14T07:41:59;7.47;;;5.20;;
66521;SDS011;53349;53.538;8.584;2023-05-14T07:44:24;7.22;;;5.05;;
66521;SDS011;53349;53.538;8.584;2023-05-14T07:46:50;6.93;;;5.25;;
66521;SDS011;53349;53.538;8.584;2023-05-14T07:49:17;7.10;;;5.20;;
66521;SDS011;53349;53.538;8.584;2023-05-14T07:51:46;8.35;;;5.28;;
66521;SDS011;53349;53.538;8.584;2023-05-14T07:54:13;7.10;;;5.20;;
66521;SDS011;53349;53.538;8.584;2023-05-14T07:56:39;5.57;;;4.57;;
66521;SDS011;53349;53.538;8.584;2023-05-14T07:59:04;6.20;;;4.47;;
66521;SDS011;53349;53.538;8.584;2023-05-14T08:01:30;5.97;;;4.43;;
66521;SDS011;53349;53.538;8.584;2023-05-14T08:03:56;6.03;;;4.50;;
66521;SDS011;53349;53.538;8.584;2023-05-14T08:06:23;5.87;;;4.00;;
66521;SDS011;53349;53.538;8.584;2023-05-14T08:08:53;5.68;;;3.90;;
66521;SDS011;53349;53.538;8.584;2023-05-14T08:11:19;5.68;;;4.13;;
66521;SDS011;53349;53.538;8.584;2023-05-14T08:13:44;6.20;;;4.10;;
66521;SDS011;53349;53.538;8.584;2023-05-14T08:16:11;6.28;;;3.95;;
66521;SDS011;53349;53.538;8.584;2023-05-14T08:18:36;6.83;;;3.97;;
66521;SDS011;53349;53.538;8.584;2023-05-14T08:21:01;5.93;;;3.80;;
66521;SDS011;53349;53.538;8.584;2023-05-14T08:23:27;5.00;;;4.17;;
66521;SDS011;53349;53.538;8.584;2023-05-14T08:25:52;7.33;;;4.20;;
66521;SDS011;53349;53.538;8.584;2023-05-14T08:28:19;5.43;;;3.83;;
66521;SDS011;53349;53.538;8.584;2023-05-14T08:30:47;5.60;;;3.92;;
66521;SDS011;53349;53.538;8.584;2023-05-14T08:33:13;5.65;;;3.70;;
66521;SDS011;53349;53.538;8.584;2023-05-14T08:35:39;5.50;;;3.80;;
66521;SDS011;53349;53.538;8.584;2023-05-14T08:38:04;5.67;;;3.83;;
66521;SDS011;53349;53.538;8.584;2023-05-14T08:40:30;7.97;;;4.38;;
66521;SDS011;53349;53.538;8.584;2023-05-14T08:42:56;5.80;;;3.80;;
66521;SDS011;53349;53.538;8.584;2023-05-14T08:45:28;5.15;;;3.88;;
66521;SDS011;53349;53.538;8.584;2023-05-14T08:47:54;5.03;;;3.80;;
66521;SDS011;53349;53.538;8.584;2023-05-14T08:50:22;7.80;;;3.90;;
66521;SDS011;53349;53.538;8.584;2023-05-14T08:52:48;6.00;;;3.43;;
66521;SDS011;53349;53.538;8.584;2023-05-14T08:55:15;5.95;;;3.90;;
66521;SDS011;53349;53.538;8.584;2023-05-14T08:57:40;5.97;;;4.10;;
66521;SDS011;53349;53.538;8.584;2023-05-14T09:00:07;5.47;;;3.70;;
66521;SDS011;53349;53.538;8.584;2023-05-14T09:02:33;4.78;;;3.38;;
66521;SDS011;53349;53.538;8.584;2023-05-14T09:05:01;5.57;;;3.97;;
66521;SDS011;53349;53.538;8.584;2023-05-14T09:07:28;5.22;;;3.50;;
66521;SDS011;53349;53.538;8.584;2023-05-14T09:09:54;5.25;;;3.55;;
66521;SDS011;53349;53.538;8.584;2023-05-14T09:12:19;5.57;;;3.73;;
66521;SDS011;53349;53.538;8.584;2023-05-14T09:14:47;6.75;;;3.80;;
66521;SDS011;53349;53.538;8.584;2023-05-14T09:17:13;5.63;;;3.63;;
66521;SDS011;53349;53.538;8.584;2023-05-14T09:19:39;6.47;;;3.90;;
66521;SDS011;53349;53.538;8.584;2023-05-14T09:22:07;6.15;;;4.63;;
66521;SDS011;53349;53.538;8.584;2023-05-14T09:24:33;7.72;;;4.65;;
66521;SDS011;53349;53.538;8.584;2023-05-14T09:27:03;6.00;;;4.03;;
66521;SDS011;53349;53.538;8.584;2023-05-14T09:29:43;5.37;;;4.17;;
66521;SDS011;53349;53.538;8.584;2023-05-14T09:32:08;6.63;;;4.22;;
66521;SDS011;53349;53.538;8.584;2023-05-14T09:34:40;6.20;;;4.10;;
66521;SDS011;53349;53.538;8.584;2023-05-14T09:37:06;7.22;;;4.35;;
66521;SDS011;53349;53.538;8.584;2023-05-14T09:39:33;5.88;;;4.10;;
66521;SDS011;53349;53.538;8.584;2023-05-14T09:41:59;6.53;;;4.50;;
66521;SDS011;53349;53.538;8.584;2023-05-14T09:44:26;6.07;;;4.50;;
66521;SDS011;53349;53.538;8.584;2023-05-14T09:46:53;7.95;;;4.90;;
66521;SDS011;53349;53.538;8.584;2023-05-14T09:49:19;6.13;;;4.20;;
66521;SDS011;53349;53.538;8.584;2023-05-14T09:51:44;6.10;;;4.30;;
66521;SDS011;53349;53.538;8.584;2023-05-14T09:54:10;5.15;;;4.00;;
66521;SDS011;53349;53.538;8.584;2023-05-14T09:56:38;6.75;;;4.22;;
66521;SDS011;53349;53.538;8.584;2023-05-14T09:59:04;5.83;;;4.43;;
66521;SDS011;53349;53.538;8.584;2023-05-14T10:01:30;8.05;;;4.03;;
66521;SDS011;53349;53.538;8.584;2023-05-14T10:03:56;7.13;;;3.90;;
66521;SDS011;53349;53.538;8.584;2023-05-14T10:06:22;5.83;;;4.00;;
66521;SDS011;53349;53.538;8.584;2023-05-14T10:08:53;6.07;;;4.00;;
66521;SDS011;53349;53.538;8.584;2023-05-14T10:11:21;7.80;;;3.83;;
66521;SDS011;53349;53.538;8.584;2023-05-14T10:14:10;5.50;;;3.92;;
66521;SDS011;53349;53.538;8.584;2023-05-14T10:16:49;8.27;;;4.45;;
66521;SDS011;53349;53.538;8.584;2023-05-14T10:19:19;8.10;;;5.65;;
66521;SDS011;53349;53.538;8.584;2023-05-14T10:21:55;6.35;;;4.50;;
66521;SDS011;53349;53.538;8.584;2023-05-14T10:24:27;5.60;;;3.97;;
66521;SDS011;53349;53.538;8.584;2023-05-14T10:26:59;6.25;;;4.25;;
66521;SDS011;53349;53.538;8.584;2023-05-14T10:29:34;9.48;;;4.70;;
66521;SDS011;53349;53.538;8.584;2023-05-14T10:32:04;6.63;;;4.57;;
66521;SDS011;53349;53.538;8.584;2023-05-14T10:37:04;5.53;;;3.90;;
66521;SDS011;53349;53.538;8.584;2023-05-14T10:39:49;6.82;;;4.30;;
66521;SDS011;53349;53.538;8.584;2023-05-14T10:42:23;4.78;;;3.78;;
66521;SDS011;53349;53.538;8.584;2023-05-14T10:47:20;7.27;;;3.87;;
66521;SDS011;53349;53.538;8.584;2023-05-14T10:49:47;6.50;;;3.70;;
66521;SDS011;53349;53.538;8.584;2023-05-14T10:52:14;5.85;;;3.50;;
66521;SDS011;53349;53.538;8.584;2023-05-14T10:54:45;6.43;;;3.72;;
66521;SDS011;53349;53.538;8.584;2023-05-14T10:57:16;5.55;;;3.67;;
66521;SDS011;53349;53.538;8.584;2023-05-14T10:59:42;5.27;;;4.00;;
66521;SDS011;53349;53.538;8.584;2023-05-14T11:04:51;7.78;;;3.95;;
66521;SDS011;53349;53.538;8.584;2023-05-14T11:07:37;6.70;;;3.80;;
66521;SDS011;53349;53.538;8.584;2023-05-14T11:12:36;4.70;;;3.53;;
66521;SDS011;53349;53.538;8.584;2023-05-14T11:15:03;5.68;;;3.80;;
66521;SDS011;53349;53.538;8.584;2023-05-14T11:17:31;5.18;;;3.47;;
66521;SDS011;53349;53.538;8.584;2023-05-14T11:19:57;5.03;;;3.73;;
66521;SDS011;53349;53.538;8.584;2023-05-14T11:22:24;8.00;;;4.28;;
66521;SDS011;53349;53.538;8.584;2023-05-14T11:24:49;5.90;;;3.70;;
66521;SDS011;53349;53.538;8.584;2023-05-14T11:27:16;6.38;;;3.88;;
66521;SDS011;53349;53.538;8.584;2023-05-14T11:29:45;6.03;;;3.40;;
66521;SDS011;53349;53.538;8.584;2023-05-14T11:32:12;5.20;;;3.10;;
66521;SDS011;53349;53.538;8.584;2023-05-14T11:34:38;5.13;;;3.60;;
66521;SDS011;53349;53.538;8.584;2023-05-14T11:37:04;5.95;;;3.65;;
66521;SDS011;53349;53.538;8.584;2023-05-14T11:39:32;5.07;;;3.50;;
66521;SDS011;53349;53.538;8.584;2023-05-14T11:42:01;5.72;;;3.90;;
66521;SDS011;53349;53.538;8.584;2023-05-14T11:44:28;5.13;;;3.30;;
66521;SDS011;53349;53.538;8.584;2023-05-14T11:46:54;4.77;;;3.40;;
66521;SDS011;53349;53.538;8.584;2023-05-14T11:49:24;5.57;;;3.83;;
66521;SDS011;53349;53.538;8.584;2023-05-14T11:54:26;5.33;;;3.60;;
66521;SDS011;53349;53.538;8.584;2023-05-14T11:56:53;5.13;;;3.30;;
66521;SDS011;53349;53.538;8.584;2023-05-14T11:59:18;6.18;;;3.83;;
66521;SDS011;53349;53.538;8.584;2023-05-14T12:01:45;8.98;;;4.43;;
66521;SDS011;53349;53.538;8.584;2023-05-14T12:04:11;59.00;;;22.07;;
66521;SDS011;53349;53.538;8.584;2023-05-14T12:06:37;38.88;;;15.77;;
66521;SDS011;53349;53.538;8.584;2023-05-14T12:09:05;9.95;;;4.93;;
66521;SDS011;53349;53.538;8.584;2023-05-14T12:11:31;15.82;;;6.78;;
66521;SDS011;53349;53.538;8.584;2023-05-14T12:13:57;10.33;;;5.90;;
66521;SDS011;53349;53.538;8.584;2023-05-14T12:16:28;8.05;;;4.53;;
66521;SDS011;53349;53.538;8.584;2023-05-14T12:18:57;8.45;;;4.90;;
66521;SDS011;53349;53.538;8.584;2023-05-14T12:21:25;10.27;;;5.88;;
66521;SDS011;53349;53.538;8.584;2023-05-14T12:23:56;7.57;;;4.20;;
66521;SDS011;53349;53.538;8.584;2023-05-14T12:26:22;5.13;;;3.80;;
66521;SDS011;53349;53.538;8.584;2023-05-14T12:28:55;6.13;;;3.90;;
66521;SDS011;53349;53.538;8.584;2023-05-14T12:31:27;6.63;;;3.80;;
66521;SDS011;53349;53.538;8.584;2023-05-14T12:33:53;8.95;;;4.05;;
66521;SDS011;53349;53.538;8.584;2023-05-14T12:36:19;6.20;;;3.73;;
66521;SDS011;53349;53.538;8.584;2023-05-14T12:38:45;5.53;;;3.73;;
66521;SDS011;53349;53.538;8.584;2023-05-14T12:41:11;7.22;;;3.92;;
66521;SDS011;53349;53.538;8.584;2023-05-14T12:43:39;4.85;;;3.50;;
66521;SDS011;53349;53.538;8.584;2023-05-14T12:46:08;5.90;;;3.60;;
66521;SDS011;53349;53.538;8.584;2023-05-14T12:48:35;5.07;;;3.50;;
66521;SDS011;53349;53.538;8.584;2023-05-14T12:51:00;7.10;;;4.20;;
66521;SDS011;53349;53.538;8.584;2023-05-14T12:53:25;5.73;;;3.90;;
66521;SDS011;53349;53.538;8.584;2023-05-14T12:55:53;6.27;;;3.60;;
66521;SDS011;53349;53.538;8.584;2023-05-14T12:58:20;5.00;;;3.50;;
66521;SDS011;53349;53.538;8.584;2023-05-14T13:00:46;5.70;;;3.97;;
66521;SDS011;53349;53.538;8.584;2023-05-14T13:03:13;5.88;;;3.67;;
66521;SDS011;53349;53.538;8.584;2023-05-14T13:05:38;5.87;;;3.73;;
66521;SDS011;53349;53.538;8.584;2023-05-14T13:08:04;5.50;;;3.87;;
66521;SDS011;53349;53.538;8.584;2023-05-14T13:10:31;4.67;;;3.40;;
66521;SDS011;53349;53.538;8.584;2023-05-14T13:12:59;5.10;;;3.70;;
66521;SDS011;53349;53.538;8.584;2023-05-14T13:15:25;5.07;;;3.50;;
66521;SDS011;53349;53.538;8.584;2023-05-14T13:17:50;6.18;;;4.00;;
66521;SDS011;53349;53.538;8.584;2023-05-14T13:20:17;7.70;;;3.90;;
66521;SDS011;53349;53.538;8.584;2023-05-14T13:22:43;5.25;;;3.92;;
66521;SDS011;53349;53.538;8.584;2023-05-14T13:25:08;7.50;;;4.37;;
66521;SDS011;53349;53.538;8.584;2023-05-14T13:27:34;7.50;;;4.13;;
66521;SDS011;53349;53.538;8.584;2023-05-14T13:30:02;5.80;;;4.13;;
66521;SDS011;53349;53.538;8.584;2023-05-14T13:32:32;6.78;;;4.20;;
66521;SDS011;53349;53.538;8.584;2023-05-14T13:35:00;6.75;;;4.90;;
66521;SDS011;53349;53.538;8.584;2023-05-14T13:37:25;7.50;;;4.70;;
66521;SDS011;53349;53.538;8.584;2023-05-14T13:39:52;6.25;;;4.68;;
66521;SDS011;53349;53.538;8.584;2023-05-14T13:42:18;7.10;;;4.65;;
66521;SDS011;53349;53.538;8.584;2023-05-14T13:44:47;6.03;;;4.50;;
66521;SDS011;53349;53.538;8.584;2023-05-14T13:47:12;6.33;;;4.57;;
66521;SDS011;53349;53.538;8.584;2023-05-14T13:49:37;8.63;;;5.10;;
66521;SDS011;53349;53.538;8.584;2023-05-14T13:52:04;7.13;;;4.97;;
66521;SDS011;53349;53.538;8.584;2023-05-14T13:54:31;7.65;;;4.78;;
66521;SDS011;53349;53.538;8.584;2023-05-14T13:56:56;8.70;;;4.50;;
66521;SDS011;53349;53.538;8.584;2023-05-14T13:59:22;6.73;;;4.60;;
66521;SDS011;53349;53.538;8.584;2023-05-14T14:01:48;7.45;;;4.93;;
66521;SDS011;53349;53.538;8.584;2023-05-14T14:04:13;6.20;;;4.50;;
66521;SDS011;53349;53.538;8.584;2023-05-14T14:06:41;8.73;;;7.00;;
66521;SDS011;53349;53.538;8.584;2023-05-14T14:09:07;9.02;;;7.57;;
66521;SDS011;53349;53.538;8.584;2023-05-14T14:11:32;7.17;;;5.77;;
66521;SDS011;53349;53.538;8.584;2023-05-14T14:13:58;6.73;;;5.67;;
66521;SDS011;53349;53.538;8.584;2023-05-14T14:16:23;6.43;;;4.90;;
66521;SDS011;53349;53.538;8.584;2023-05-14T14:18:54;6.50;;;5.22;;
66521;SDS011;53349;53.538;8.584;2023-05-14T14:21:19;6.82;;;5.13;;
66521;SDS011;53349;53.538;8.584;2023-05-14T14:23:45;7.73;;;6.30;;
66521;SDS011;53349;53.538;8.584;2023-05-14T14:26:11;8.55;;;5.32;;
66521;SDS011;53349;53.538;8.584;2023-05-14T14:28:40;7.75;;;5.30;;
66521;SDS011;53349;53.538;8.584;2023-05-14T14:31:06;8.17;;;5.07;;
66521;SDS011;53349;53.538;8.584;2023-05-14T14:33:31;6.22;;;4.88;;
66521;SDS011;53349;53.538;8.584;2023-05-14T14:35:56;7.10;;;5.03;;
66521;SDS011;53349;53.538;8.584;2023-05-14T14:38:23;7.50;;;4.93;;
66521;SDS011;53349;53.538;8.584;2023-05-14T14:40:52;7.03;;;5.00;;
66521;SDS011;53349;53.538;8.584;2023-05-14T14:43:19;8.43;;;5.17;;
66521;SDS011;53349;53.538;8.584;2023-05-14T14:45:45;7.00;;;5.25;;
66521;SDS011;53349;53.538;8.584;2023-05-14T14:51:13;8.10;;;5.78;;
66521;SDS011;53349;53.538;8.584;2023-05-14T14:53:39;9.18;;;6.50;;
66521;SDS011;53349;53.538;8.584;2023-05-14T14:56:04;46.03;;;24.13;;
66521;SDS011;53349;53.538;8.584;2023-05-14T14:58:31;35.53;;;20.17;;
66521;SDS011;53349;53.538;8.584;2023-05-14T15:00:57;33.92;;;19.73;;
66521;SDS011;53349;53.538;8.584;2023-05-14T15:03:22;28.80;;;18.27;;